Time;durP1;ratioP1;P1;durP2;ratioP2;P2;SDS_P1;SDS_P2;PMS_P1;PMS_P2;Temp;Humidity;BMP_temperature;BMP_pressure;BME280_temperature;BME280_humidity;BME280_pressure;Samples;Min_cycle;Max_cycle;Signal;HPM_P1;HPM_P2
2022/01/20 00:01:57;;;;;;;17.00;2.65;;;3.20;99.90;;;;;;5058563;28;20055;-71
2022/01/20 00:04:29;;;;;;;17.33;2.70;;;3.20;99.90;;;;;;5040503;28;20072;-71
2022/01/20 00:23:17;;;;;;;16.13;2.60;;;3.90;99.90;;;;;;5020268;28;20080;-71
2022/01/20 00:26:07;;;;;;;17.08;2.65;;;3.80;99.90;;;;;;5020221;28;20096;-69
2022/01/20 00:28:42;;;;;;;17.88;2.20;;;3.80;99.90;;;;;;5038257;28;20128;-68
2022/01/20 00:34:10;;;;;;;14.38;2.35;;;3.80;99.90;;;;;;5019280;28;20049;-68
2022/01/20 00:39:03;;;;;;;18.92;2.53;;;3.70;99.90;;;;;;5057440;28;20060;-70
2022/01/20 00:41:29;;;;;;;16.80;2.80;;;3.60;99.90;;;;;;5057581;28;20075;-69
2022/01/20 00:43:54;;;;;;;16.83;3.03;;;3.60;99.90;;;;;;5040185;28;20052;-70
2022/01/20 00:46:20;;;;;;;16.98;2.35;;;3.60;99.90;;;;;;5039975;28;20041;-71
2022/01/20 00:48:46;;;;;;;15.88;3.13;;;3.50;99.90;;;;;;5039678;28;20156;-68
2022/01/20 00:51:11;;;;;;;20.63;3.15;;;3.50;99.90;;;;;;5039394;28;20083;-68
2022/01/20 00:53:43;;;;;;;16.27;2.95;;;3.80;99.90;;;;;;5057292;28;20052;-69
2022/01/20 00:56:10;;;;;;;18.05;2.35;;;3.50;99.90;;;;;;5039835;28;20499;-68
2022/01/20 00:58:36;;;;;;;21.35;2.97;;;3.50;99.90;;;;;;5039667;28;20106;-69
2022/01/20 01:01:01;;;;;;;23.60;3.38;;;3.60;99.90;;;;;;5039498;28;20057;-70
2022/01/20 01:03:27;;;;;;;15.15;2.42;;;3.60;99.90;;;;;;5039590;28;20049;-69
2022/01/20 01:06:35;;;;;;;17.10;2.85;;;3.70;99.90;;;;;;5044044;28;20049;-70
2022/01/20 01:08:44;;;;;;;22.08;2.65;;;3.70;99.90;;;;;;5014450;28;20061;-68
2022/01/20 01:11:09;;;;;;;17.42;2.67;;;3.70;99.90;;;;;;5036952;28;20454;-69
2022/01/20 01:13:36;;;;;;;18.80;2.97;;;3.70;99.90;;;;;;5036542;28;20136;-69
2022/01/20 01:16:03;;;;;;;17.23;2.90;;;3.80;99.90;;;;;;5165211;22;20543;-68
2022/01/20 01:21:26;;;;;;;20.20;3.08;;;3.80;99.90;;;;;;5019293;28;20057;-69
2022/01/20 01:23:51;;;;;;;35.45;3.60;;;3.90;99.90;;;;;;5036664;28;20049;-68
2022/01/20 01:26:18;;;;;;;21.80;2.60;;;4.00;99.90;;;;;;5036604;28;20470;-68
2022/01/20 01:28:45;;;;;;;13.13;2.22;;;4.00;99.90;;;;;;5019166;28;20053;-69
2022/01/20 01:33:52;;;;;;;13.50;1.95;;;4.10;99.90;;;;;;5036475;28;20060;-71
2022/01/20 01:36:20;;;;;;;9.32;1.65;;;4.10;99.90;;;;;;5018268;28;20046;-70
2022/01/20 01:38:47;;;;;;;13.68;2.33;;;4.00;99.90;;;;;;5018579;28;20053;-70
2022/01/20 01:41:17;;;;;;;13.32;1.83;;;4.00;99.90;;;;;;5036453;28;20395;-69
2022/01/20 01:43:46;;;;;;;9.00;1.73;;;3.90;99.90;;;;;;5019554;28;20123;-70
2022/01/20 01:46:14;;;;;;;17.65;1.70;;;3.70;99.90;;;;;;5036088;28;20037;-68
2022/01/20 01:48:41;;;;;;;10.68;1.73;;;3.70;99.90;;;;;;5019008;28;20045;-68
2022/01/20 01:51:08;;;;;;;11.38;3.28;;;3.60;99.90;;;;;;5018742;28;20453;-68
2022/01/20 01:53:34;;;;;;;12.30;2.15;;;3.60;99.90;;;;;;5036425;28;20419;-70
2022/01/20 01:56:01;;;;;;;14.45;2.35;;;3.60;99.90;;;;;;5018784;28;20045;-68
2022/01/20 01:58:26;;;;;;;11.50;1.83;;;3.60;99.90;;;;;;5019046;28;20466;-68
2022/01/20 02:00:52;;;;;;;9.80;1.77;;;3.60;99.90;;;;;;5018193;28;20124;-69
2022/01/20 02:03:18;;;;;;;13.15;2.20;;;3.60;99.90;;;;;;5018282;28;20059;-68
2022/01/20 02:06:00;;;;;;;11.38;1.95;;;3.50;99.90;;;;;;5035469;28;20413;-69
2022/01/20 02:19:15;;;;;;;19.75;2.80;;;4.20;99.90;;;;;;5036027;28;20116;-70
2022/01/20 02:21:55;;;;;;;16.10;2.45;;;3.90;99.90;;;;;;5035124;28;20049;-72
2022/01/20 02:24:21;;;;;;;21.75;2.50;;;3.90;99.90;;;;;;4998975;28;20053;-70
2022/01/20 02:26:47;;;;;;;13.80;1.95;;;3.90;99.90;;;;;;4998444;28;20418;-70
2022/01/20 02:29:13;;;;;;;14.63;2.20;;;3.90;99.90;;;;;;4999130;28;20132;-68
2022/01/20 02:31:39;;;;;;;18.52;3.05;;;4.00;99.90;;;;;;5015820;28;20049;-69
2022/01/20 02:34:07;;;;;;;26.73;2.97;;;4.00;99.90;;;;;;4998468;28;20049;-70
2022/01/20 02:36:35;;;;;;;15.15;2.70;;;4.00;99.90;;;;;;5023113;28;20095;-69
2022/01/20 02:39:09;;;;;;;17.05;2.88;;;4.00;99.90;;;;;;5035384;28;20462;-71
2022/01/20 02:47:11;;;;;;;16.15;3.60;;;4.20;99.90;;;;;;5018462;28;20053;-69
2022/01/20 02:49:36;;;;;;;20.75;3.53;;;3.70;99.90;;;;;;5034808;28;20049;-69
2022/01/20 02:52:02;;;;;;;25.17;3.38;;;3.70;99.90;;;;;;5017431;28;20045;-70
2022/01/20 02:54:28;;;;;;;19.70;3.67;;;3.60;99.90;;;;;;5034866;28;20103;-68
2022/01/20 02:56:53;;;;;;;20.58;3.25;;;3.70;99.90;;;;;;5017643;28;20053;-70
2022/01/20 02:59:19;;;;;;;20.20;4.00;;;3.60;99.90;;;;;;5001786;28;20041;-67
2022/01/20 03:01:45;;;;;;;20.65;3.10;;;3.60;99.90;;;;;;5035267;28;20049;-68
2022/01/20 03:04:11;;;;;;;20.25;3.17;;;3.60;99.90;;;;;;5017211;28;20140;-69
2022/01/20 03:06:37;;;;;;;20.48;4.05;;;3.70;99.90;;;;;;5017409;28;20053;-69
2022/01/20 03:09:04;;;;;;;31.33;3.85;;;3.60;99.90;;;;;;5035247;28;20114;-70
2022/01/20 03:11:29;;;;;;;24.42;3.75;;;3.70;99.90;;;;;;5017840;28;20060;-68
2022/01/20 03:13:55;;;;;;;21.92;3.67;;;3.70;99.90;;;;;;5017566;28;20381;-71
2022/01/20 03:16:21;;;;;;;21.05;3.97;;;3.80;99.90;;;;;;5016960;28;20478;-70
2022/01/20 03:18:46;;;;;;;27.95;4.70;;;3.80;99.90;;;;;;5017358;28;20053;-67
2022/01/20 03:21:12;;;;;;;24.92;4.28;;;3.90;99.90;;;;;;5017596;28;20132;-69
2022/01/20 03:23:37;;;;;;;24.58;4.15;;;3.90;99.90;;;;;;5017518;28;20348;-69
2022/01/20 03:26:03;;;;;;;21.48;4.53;;;4.00;99.90;;;;;;5017220;28;20138;-69
2022/01/20 03:28:28;;;;;;;21.98;4.82;;;4.00;99.90;;;;;;5017583;28;20099;-70
2022/01/20 03:30:54;;;;;;;25.95;3.83;;;4.00;99.90;;;;;;5017334;28;20072;-69
2022/01/20 03:33:20;;;;;;;26.58;4.25;;;4.00;99.90;;;;;;5034709;28;20129;-70
2022/01/20 03:35:47;;;;;;;32.83;4.53;;;4.00;99.90;;;;;;5034292;28;20068;-69
2022/01/20 03:38:13;;;;;;;38.35;5.20;;;4.00;99.90;;;;;;5018010;28;20127;-68
2022/01/20 03:40:39;;;;;;;29.92;4.57;;;3.90;99.90;;;;;;5017183;28;20045;-70
2022/01/20 03:43:04;;;;;;;23.70;4.20;;;3.90;99.90;;;;;;5017192;28;20052;-70
2022/01/20 03:45:30;;;;;;;32.70;4.85;;;3.90;99.90;;;;;;5034864;28;20045;-68
2022/01/20 03:48:05;;;;;;;32.78;5.13;;;3.90;99.90;;;;;;5017273;28;20081;-71
2022/01/20 03:53:15;;;;;;;23.15;4.43;;;3.80;99.90;;;;;;5017009;28;20053;-72
2022/01/20 03:55:41;;;;;;;16.45;3.30;;;3.90;99.90;;;;;;5017142;28;20041;-70
2022/01/20 03:58:07;;;;;;;17.30;3.50;;;3.90;99.90;;;;;;5017601;28;20138;-69
2022/01/20 04:00:33;;;;;;;14.57;3.50;;;3.90;99.90;;;;;;5034264;28;20417;-69
2022/01/20 04:02:59;;;;;;;18.58;4.05;;;4.30;99.90;;;;;;5034259;28;20060;-72
2022/01/20 04:05:24;;;;;;;17.90;3.13;;;3.90;99.90;;;;;;5017271;28;20535;-69
2022/01/20 04:07:50;;;;;;;19.20;3.33;;;3.90;99.90;;;;;;5017895;28;20412;-71
2022/01/20 04:10:15;;;;;;;20.48;3.22;;;3.80;99.90;;;;;;5038334;28;20053;-68
2022/01/20 04:12:41;;;;;;;16.50;3.40;;;3.70;99.90;;;;;;5021089;28;20386;-70
2022/01/20 04:15:09;;;;;;;12.57;2.20;;;3.70;99.90;;;;;;5019797;28;20111;-71
2022/01/20 04:17:40;;;;;;;17.95;3.28;;;3.70;99.90;;;;;;5020604;28;20073;-69
2022/01/20 04:20:06;;;;;;;13.18;2.63;;;3.60;99.90;;;;;;5020945;28;20045;-72
2022/01/20 04:22:32;;;;;;;18.35;3.00;;;3.60;99.90;;;;;;5020563;28;20045;-69
2022/01/20 04:24:57;;;;;;;15.80;2.78;;;3.60;99.90;;;;;;5020561;28;20046;-70
2022/01/20 04:27:23;;;;;;;13.90;2.75;;;3.60;99.90;;;;;;5020668;28;20081;-72
2022/01/20 04:29:49;;;;;;;16.17;2.80;;;3.60;99.90;;;;;;5037580;28;20052;-67
2022/01/20 04:32:14;;;;;;;11.38;2.53;;;3.60;99.90;;;;;;5037730;28;20107;-68
2022/01/20 04:34:40;;;;;;;13.80;2.60;;;3.60;99.90;;;;;;5037767;28;20128;-69
2022/01/20 04:37:07;;;;;;;13.60;3.20;;;3.70;99.90;;;;;;5036910;28;20121;-67
2022/01/20 04:39:36;;;;;;;13.88;2.90;;;3.70;99.90;;;;;;5020340;28;20111;-70
2022/01/20 04:42:02;;;;;;;15.38;3.60;;;3.60;99.90;;;;;;5037055;28;20054;-71
2022/01/20 04:44:43;;;;;;;11.48;2.75;;;3.60;99.90;;;;;;5019660;28;20087;-70
2022/01/20 04:58:07;;;;;;;13.43;2.53;;;3.60;99.90;;;;;;5037542;28;20084;-68
2022/01/20 05:00:34;;;;;;;16.60;2.80;;;3.70;99.90;;;;;;5020218;28;20077;-68
2022/01/20 05:03:01;;;;;;;16.98;3.58;;;3.60;99.90;;;;;;5037251;28;20048;-69
2022/01/20 05:05:27;;;;;;;16.58;3.05;;;3.60;99.90;;;;;;5019242;28;20056;-69
2022/01/20 05:07:53;;;;;;;15.02;2.67;;;3.50;99.90;;;;;;5019100;28;20373;-68
2022/01/20 05:10:18;;;;;;;15.00;2.72;;;3.50;99.90;;;;;;5019771;28;20053;-68
2022/01/20 05:15:20;;;;;;;12.48;2.45;;;3.40;99.90;;;;;;5028784;28;20068;-68
2022/01/20 05:17:46;;;;;;;12.82;2.80;;;3.40;99.90;;;;;;5036120;28;20128;-69
2022/01/20 05:20:12;;;;;;;20.15;3.38;;;3.40;99.90;;;;;;5019304;28;20121;-70
2022/01/20 05:22:37;;;;;;;11.40;2.13;;;3.40;99.90;;;;;;5019139;28;20052;-67
2022/01/20 05:25:04;;;;;;;8.13;1.85;;;3.40;99.90;;;;;;5019442;28;20049;-70
2022/01/20 05:27:30;;;;;;;8.13;1.52;;;3.40;99.90;;;;;;5019291;28;20096;-69
2022/01/20 05:29:56;;;;;;;9.32;1.60;;;3.30;99.90;;;;;;5036818;28;20049;-69
2022/01/20 05:32:22;;;;;;;8.05;1.70;;;3.30;99.90;;;;;;5018964;28;20115;-68
2022/01/20 05:34:48;;;;;;;7.93;1.60;;;3.20;99.90;;;;;;5036871;28;20369;-68
2022/01/20 05:37:14;;;;;;;6.10;1.52;;;3.20;99.90;;;;;;5018840;28;20076;-68
2022/01/20 05:39:40;;;;;;;10.25;1.70;;;3.10;99.90;;;;;;5036421;28;20053;-69
2022/01/20 05:42:06;;;;;;;9.73;1.90;;;3.00;99.90;;;;;;5036487;28;20060;-67
2022/01/20 05:44:31;;;;;;;6.47;1.67;;;2.90;99.90;;;;;;5019228;28;20354;-69
2022/01/20 05:46:57;;;;;;;12.25;2.05;;;2.80;99.90;;;;;;5018240;28;20053;-69
2022/01/20 05:49:23;;;;;;;9.90;1.65;;;2.70;99.90;;;;;;5036398;28;20048;-70
2022/01/20 05:51:52;;;;;;;14.15;2.83;;;2.60;99.90;;;;;;5036610;28;20056;-69
2022/01/20 05:54:18;;;;;;;12.02;2.28;;;2.60;99.90;;;;;;5018825;28;20056;-68
2022/01/20 05:56:44;;;;;;;11.20;1.90;;;2.50;99.90;;;;;;5017836;28;20052;-69
2022/01/20 05:59:10;;;;;;;17.35;3.05;;;2.50;99.90;;;;;;5018697;28;20041;-67
2022/01/20 06:01:37;;;;;;;16.48;3.47;;;2.50;99.90;;;;;;5018194;28;20060;-69
2022/01/20 06:04:05;;;;;;;15.43;2.75;;;2.40;99.90;;;;;;5018991;28;20055;-68
2022/01/20 06:06:31;;;;;;;21.92;3.40;;;2.80;99.90;;;;;;5035570;28;20048;-67
2022/01/20 06:08:57;;;;;;;18.20;3.83;;;2.40;99.90;;;;;;5019045;28;20124;-68
2022/01/20 06:11:22;;;;;;;16.58;3.70;;;2.50;99.90;;;;;;5035969;28;20045;-70
2022/01/20 06:13:48;;;;;;;15.73;2.53;;;2.60;99.90;;;;;;5017887;28;20500;-69
2022/01/20 06:16:14;;;;;;;15.20;3.03;;;2.60;99.90;;;;;;5017483;28;20053;-68
2022/01/20 06:18:39;;;;;;;15.45;2.95;;;2.70;99.90;;;;;;5017962;28;20042;-68
2022/01/20 06:21:05;;;;;;;15.23;3.47;;;2.80;99.90;;;;;;5035305;28;20128;-68
2022/01/20 06:23:30;;;;;;;21.42;3.70;;;2.90;99.90;;;;;;5035677;28;20053;-70
2022/01/20 06:25:57;;;;;;;18.55;3.25;;;3.40;99.90;;;;;;5035726;28;20053;-69
2022/01/20 06:28:22;;;;;;;18.85;2.97;;;3.00;99.90;;;;;;5035487;28;20037;-67
2022/01/20 06:30:48;;;;;;;26.00;3.47;;;3.00;99.90;;;;;;5017270;28;20049;-70
2022/01/20 06:33:14;;;;;;;19.58;3.35;;;3.00;99.90;;;;;;5035400;28;20049;-68
2022/01/20 06:35:40;;;;;;;16.80;2.70;;;3.00;99.90;;;;;;5018284;28;20080;-69
2022/01/20 06:38:06;;;;;;;22.30;3.58;;;3.10;99.90;;;;;;5017737;28;20462;-68
2022/01/20 06:40:32;;;;;;;18.55;3.20;;;3.10;99.90;;;;;;5034928;28;20073;-68
2022/01/20 06:43:00;;;;;;;19.02;4.20;;;3.20;99.90;;;;;;5034886;28;20052;-67
2022/01/20 06:45:25;;;;;;;18.63;3.53;;;3.30;99.90;;;;;;5017982;28;20049;-68
2022/01/20 06:47:51;;;;;;;20.40;2.90;;;3.20;99.90;;;;;;5035574;28;20049;-68
2022/01/20 06:50:17;;;;;;;17.48;3.25;;;3.10;99.90;;;;;;5034570;28;20096;-70
2022/01/20 06:52:43;;;;;;;13.95;3.10;;;3.00;99.90;;;;;;5035201;28;20368;-68
2022/01/20 06:55:11;;;;;;;22.67;3.60;;;2.80;99.90;;;;;;5034932;28;20128;-70
2022/01/20 06:57:38;;;;;;;20.50;3.15;;;2.70;99.90;;;;;;5035456;28;20061;-69
2022/01/20 07:00:06;;;;;;;16.17;3.35;;;2.60;99.90;;;;;;5034845;28;20095;-68
2022/01/20 07:02:32;;;;;;;16.50;3.20;;;2.50;99.90;;;;;;5034919;28;20048;-71
2022/01/20 07:04:57;;;;;;;16.50;3.42;;;2.40;99.90;;;;;;5034559;28;20485;-69
2022/01/20 07:07:23;;;;;;;16.02;3.00;;;2.40;99.90;;;;;;5017442;28;20037;-68
2022/01/20 07:09:48;;;;;;;15.13;2.53;;;2.30;99.90;;;;;;5035182;28;20041;-67
2022/01/20 07:12:14;;;;;;;16.25;3.58;;;2.30;99.90;;;;;;5017915;28;20075;-68
2022/01/20 07:14:39;;;;;;;17.27;2.65;;;2.20;99.90;;;;;;5017001;28;20119;-67
2022/01/20 07:17:06;;;;;;;15.82;3.42;;;2.20;99.90;;;;;;5035183;28;20037;-67
2022/01/20 07:19:32;;;;;;;21.27;3.13;;;2.20;99.90;;;;;;5017051;28;20046;-69
2022/01/20 07:21:59;;;;;;;15.45;2.92;;;2.10;99.90;;;;;;5016851;28;20476;-68
2022/01/20 07:24:27;;;;;;;15.18;3.17;;;2.20;99.90;;;;;;5017283;28;20103;-69
2022/01/20 07:26:53;;;;;;;19.52;3.17;;;2.20;99.90;;;;;;5034893;28;20124;-71
2022/01/20 07:29:18;;;;;;;22.08;4.22;;;2.30;99.90;;;;;;5034850;28;20050;-69
2022/01/20 07:31:44;;;;;;;22.40;3.72;;;2.40;99.90;;;;;;5034580;28;20444;-69
2022/01/20 07:34:09;;;;;;;19.15;3.25;;;2.50;99.90;;;;;;5034321;28;20484;-67
2022/01/20 07:36:35;;;;;;;19.73;2.92;;;2.60;99.90;;;;;;5034796;28;20107;-69
2022/01/20 07:39:01;;;;;;;21.08;2.72;;;2.60;99.90;;;;;;5016906;28;20095;-70
2022/01/20 07:41:26;;;;;;;12.73;2.70;;;2.60;99.90;;;;;;5034613;28;20123;-68
2022/01/20 07:43:52;;;;;;;13.50;2.80;;;2.60;99.90;;;;;;5019553;28;20049;-71
2022/01/20 07:46:18;;;;;;;12.10;2.22;;;2.50;99.90;;;;;;5038562;28;20069;-70
2022/01/20 07:48:43;;;;;;;16.05;3.45;;;2.50;99.90;;;;;;5038420;28;20045;-68
2022/01/20 07:51:09;;;;;;;15.07;2.72;;;2.50;99.90;;;;;;5038277;28;20085;-69
2022/01/20 07:53:36;;;;;;;16.40;2.95;;;2.50;99.90;;;;;;5037477;28;20126;-69
2022/01/20 07:56:03;;;;;;;15.60;3.20;;;2.50;99.90;;;;;;5038266;28;20045;-69
2022/01/20 07:58:28;;;;;;;11.30;2.67;;;2.60;99.90;;;;;;5038275;28;20034;-70
2022/01/20 08:00:54;;;;;;;15.52;2.85;;;2.30;99.90;;;;;;5037732;28;20053;-69
2022/01/20 08:03:20;;;;;;;21.08;3.45;;;2.70;99.90;;;;;;5020924;28;20045;-68
2022/01/20 08:05:45;;;;;;;12.90;2.65;;;2.80;99.90;;;;;;5020868;28;20053;-69
2022/01/20 08:08:11;;;;;;;13.82;2.72;;;2.80;99.90;;;;;;5020397;28;20323;-71
2022/01/20 08:10:36;;;;;;;13.30;3.25;;;2.80;99.90;;;;;;5038024;28;20073;-68
2022/01/20 08:13:03;;;;;;;15.32;3.17;;;2.80;99.90;;;;;;5037760;28;20103;-69
2022/01/20 08:15:29;;;;;;;19.25;3.35;;;2.80;99.90;;;;;;5037805;28;20049;-69
2022/01/20 08:17:54;;;;;;;13.65;3.20;;;2.70;99.90;;;;;;5038139;28;20427;-69
2022/01/20 08:20:20;;;;;;;17.50;2.75;;;2.60;99.90;;;;;;5019763;28;20041;-69
2022/01/20 08:22:46;;;;;;;27.25;4.30;;;3.00;99.90;;;;;;5020518;28;20124;-68
2022/01/20 08:25:16;;;;;;;14.15;2.97;;;2.60;99.90;;;;;;5037758;28;20059;-70
2022/01/20 08:27:44;;;;;;;15.98;2.78;;;2.60;99.90;;;;;;5037765;28;20057;-68
2022/01/20 08:30:12;;;;;;;12.40;2.70;;;2.50;99.90;;;;;;5020383;28;20085;-68
2022/01/20 08:32:38;;;;;;;18.73;3.20;;;2.50;99.90;;;;;;5037607;28;20072;-68
2022/01/20 08:35:06;;;;;;;13.60;3.30;;;2.50;99.90;;;;;;5037797;28;20045;-71
2022/01/20 08:37:33;;;;;;;14.60;2.92;;;2.40;99.90;;;;;;5037477;28;20053;-69
2022/01/20 08:40:00;;;;;;;21.15;3.58;;;2.40;99.90;;;;;;5037762;28;20068;-69
2022/01/20 08:42:26;;;;;;;17.58;3.15;;;2.50;99.90;;;;;;5037257;28;20471;-69
2022/01/20 08:44:52;;;;;;;15.65;2.90;;;2.50;99.90;;;;;;5037911;28;20041;-71
2022/01/20 08:47:19;;;;;;;19.90;3.05;;;2.60;99.90;;;;;;5037204;28;20084;-68
2022/01/20 08:49:46;;;;;;;11.48;2.53;;;2.60;99.90;;;;;;5037159;28;20064;-68
2022/01/20 08:52:12;;;;;;;15.00;2.97;;;2.70;99.90;;;;;;5037446;28;20041;-69
2022/01/20 08:54:38;;;;;;;15.48;3.05;;;2.70;99.90;;;;;;5036048;28;20041;-68
2022/01/20 08:57:04;;;;;;;11.93;2.60;;;2.80;99.90;;;;;;5019817;28;20041;-70
2022/01/20 08:59:30;;;;;;;10.88;2.40;;;2.90;99.90;;;;;;5036888;28;20077;-68
2022/01/20 09:01:55;;;;;;;8.27;1.90;;;3.10;99.90;;;;;;5020210;28;20068;-68
2022/01/20 09:04:21;;;;;;;9.57;2.30;;;3.30;99.90;;;;;;5019912;28;20053;-69
2022/01/20 09:06:47;;;;;;;13.23;2.40;;;3.40;99.90;;;;;;5037078;28;20046;-69
2022/01/20 09:09:14;;;;;;;7.28;1.98;;;3.20;99.90;;;;;;5036872;28;20060;-68
2022/01/20 09:11:50;;;;;;;12.10;1.60;;;3.00;99.90;;;;;;5019561;28;20053;-68
2022/01/20 09:17:01;;;;;;;7.15;1.60;;;2.80;99.90;;;;;;5036974;28;20064;-68
2022/01/20 09:19:26;;;;;;;11.55;1.65;;;2.70;99.90;;;;;;5036514;28;20053;-69
2022/01/20 09:21:52;;;;;;;8.82;1.98;;;2.60;99.90;;;;;;5036390;28;20057;-67
2022/01/20 09:24:17;;;;;;;9.70;1.90;;;2.60;99.90;;;;;;5036555;28;20045;-68
2022/01/20 09:26:43;;;;;;;11.07;2.08;;;2.70;99.90;;;;;;5036904;28;20053;-70
2022/01/20 09:29:08;;;;;;;13.27;2.10;;;2.90;99.90;;;;;;5036827;28;20468;-69
2022/01/20 09:31:38;;;;;;;16.38;2.05;;;3.00;99.90;;;;;;5002915;28;20355;-69
2022/01/20 09:34:04;;;;;;;15.00;2.38;;;3.10;99.90;;;;;;5018690;28;20049;-69
2022/01/20 09:36:29;;;;;;;13.68;2.22;;;3.10;99.90;;;;;;5036327;28;20136;-70
2022/01/20 09:38:55;;;;;;;10.07;1.90;;;3.10;99.90;;;;;;5036285;28;20457;-72
2022/01/20 09:41:20;;;;;;;6.45;1.75;;;3.00;99.90;;;;;;5018757;28;20111;-68
2022/01/20 09:43:46;;;;;;;11.07;2.40;;;2.90;99.90;;;;;;5019057;28;20056;-67
2022/01/20 09:46:12;;;;;;;12.40;2.55;;;2.80;99.90;;;;;;5036642;28;20083;-70
2022/01/20 09:48:37;;;;;;;8.18;2.00;;;2.70;99.90;;;;;;5037010;28;20353;-68
2022/01/20 09:51:04;;;;;;;12.55;2.55;;;2.70;99.90;;;;;;5035393;28;20584;-71
2022/01/20 09:53:30;;;;;;;14.05;2.20;;;2.80;99.90;;;;;;5035606;28;20103;-69
2022/01/20 09:55:57;;;;;;;14.00;2.70;;;2.80;99.90;;;;;;5035754;28;20045;-67
2022/01/20 09:58:23;;;;;;;16.55;2.33;;;2.90;99.90;;;;;;5035677;28;20128;-67
2022/01/20 10:00:51;;;;;;;10.32;2.40;;;2.90;99.90;;;;;;5035845;28;20049;-69
2022/01/20 10:03:19;;;;;;;20.77;2.45;;;3.00;99.90;;;;;;5035958;28;20041;-70
2022/01/20 10:05:50;;;;;;;10.23;2.50;;;3.20;99.90;;;;;;5035652;28;20049;-70
2022/01/20 10:08:22;;;;;;;16.70;3.55;;;3.40;99.90;;;;;;5035592;28;20106;-71
2022/01/20 10:10:54;;;;;;;13.77;2.60;;;3.50;99.90;;;;;;5036166;28;20056;-71
2022/01/20 10:13:35;;;;;;;14.90;2.60;;;3.60;99.90;;;;;;5035943;28;20051;-69
2022/01/20 10:16:06;;;;;;;14.10;2.72;;;3.60;99.90;;;;;;5018934;28;20058;-69
2022/01/20 10:18:34;;;;;;;15.25;2.55;;;3.70;99.90;;;;;;4998370;28;20078;-67
2022/01/20 10:21:04;;;;;;;14.75;2.80;;;3.80;99.90;;;;;;5015440;28;20129;-68
2022/01/20 10:23:36;;;;;;;13.75;2.35;;;4.00;99.90;;;;;;5015970;28;20093;-70
2022/01/20 10:26:16;;;;;;;11.07;2.67;;;4.10;99.90;;;;;;5015738;28;20045;-69
2022/01/20 10:28:45;;;;;;;16.92;2.72;;;4.30;99.90;;;;;;5015561;28;20053;-70
2022/01/20 10:31:11;;;;;;;16.85;2.15;;;4.30;99.90;;;;;;5015329;28;20080;-70
2022/01/20 10:33:41;;;;;;;12.75;2.38;;;4.30;99.90;;;;;;4998870;28;20458;-69
2022/01/20 10:36:07;;;;;;;12.50;2.17;;;4.30;99.90;;;;;;5015693;28;20064;-68
2022/01/20 10:38:33;;;;;;;13.85;2.60;;;4.30;99.90;;;;;;5015553;28;20354;-69
2022/01/20 10:40:59;;;;;;;10.27;1.90;;;4.20;99.90;;;;;;4998339;28;20056;-70
2022/01/20 10:43:33;;;;;;;13.60;2.38;;;4.20;99.90;;;;;;5015306;28;20062;-70
2022/01/20 10:46:11;;;;;;;15.00;2.60;;;4.20;99.90;;;;;;5015425;28;20064;-67
2022/01/20 10:48:38;;;;;;;10.38;2.97;;;4.20;99.90;;;;;;5015307;28;20052;-69
2022/01/20 10:51:19;;;;;;;15.80;2.42;;;4.20;99.90;;;;;;5015148;28;20068;-71
2022/01/20 10:53:44;;;;;;;16.58;2.47;;;4.30;99.90;;;;;;5015135;28;20081;-68
2022/01/20 10:56:10;;;;;;;10.95;2.90;;;4.30;99.90;;;;;;5014985;28;20050;-69
2022/01/20 10:58:35;;;;;;;15.93;2.60;;;4.30;99.90;;;;;;5015099;28;20117;-69
2022/01/20 11:01:03;;;;;;;11.48;2.03;;;4.40;99.90;;;;;;5015155;28;20038;-69
2022/01/20 11:03:30;;;;;;;16.73;2.40;;;4.50;99.90;;;;;;5015356;28;20374;-71
2022/01/20 11:05:57;;;;;;;14.15;2.35;;;4.80;99.90;;;;;;5015167;28;20125;-68
2022/01/20 11:08:23;;;;;;;14.48;2.78;;;4.60;99.90;;;;;;5014620;28;20045;-68
2022/01/20 11:10:51;;;;;;;12.02;2.20;;;4.60;99.90;;;;;;5015323;28;20480;-68
2022/01/20 11:13:19;;;;;;;8.85;2.20;;;4.60;99.90;;;;;;5015235;28;20090;-72
2022/01/20 11:15:45;;;;;;;11.75;2.38;;;4.60;99.90;;;;;;5014738;28;20061;-69
2022/01/20 11:18:13;;;;;;;11.43;2.33;;;4.50;99.90;;;;;;5014543;28;20054;-68
2022/01/20 11:20:43;;;;;;;12.18;2.40;;;4.60;99.90;;;;;;5014812;28;20121;-68
2022/01/20 11:23:09;;;;;;;15.50;2.75;;;4.60;99.90;;;;;;5014774;28;20034;-68
2022/01/20 11:25:37;;;;;;;18.17;2.80;;;4.70;99.90;;;;;;5014802;28;20065;-69
2022/01/20 11:28:15;;;;;;;15.13;3.08;;;4.70;99.90;;;;;;5014854;28;20050;-68
2022/01/20 11:30:54;;;;;;;19.98;3.22;;;4.70;99.90;;;;;;5014827;28;20523;-69
2022/01/20 11:33:23;;;;;;;13.93;2.95;;;4.70;99.90;;;;;;5014293;28;20130;-68
2022/01/20 11:35:54;;;;;;;20.20;3.63;;;4.70;99.90;;;;;;5014651;28;20069;-68
2022/01/20 11:38:22;;;;;;;16.88;3.38;;;4.60;99.90;;;;;;4997736;28;20061;-68
2022/01/20 11:41:00;;;;;;;20.58;3.35;;;4.50;99.90;;;;;;5015196;28;20132;-72
2022/01/20 11:43:32;;;;;;;17.73;2.75;;;4.40;99.90;;;;;;4997482;28;20049;-72
2022/01/20 11:46:04;;;;;;;16.52;3.30;;;4.30;99.90;;;;;;5014626;28;20089;-69
2022/01/20 11:48:30;;;;;;;20.77;3.58;;;4.40;99.90;;;;;;5014609;28;20137;-69
2022/01/20 11:51:06;;;;;;;19.27;3.22;;;4.40;99.90;;;;;;4997660;28;20082;-70
2022/01/20 11:53:41;;;;;;;10.18;2.30;;;4.50;99.90;;;;;;5014329;28;20049;-70
2022/01/20 11:56:07;;;;;;;11.93;2.67;;;4.40;99.90;;;;;;5014312;28;20100;-69
2022/01/20 11:58:33;;;;;;;12.63;2.70;;;4.20;99.90;;;;;;5014838;28;20414;-69
2022/01/20 12:01:07;;;;;;;9.60;2.10;;;4.10;99.90;;;;;;4997601;28;20046;-70
2022/01/20 12:03:35;;;;;;;15.13;2.42;;;3.90;99.90;;;;;;5014580;28;20458;-68
2022/01/20 12:06:13;;;;;;;15.40;2.95;;;3.70;99.90;;;;;;5014912;28;20057;-69
2022/01/20 12:08:56;;;;;;;14.32;2.85;;;3.60;99.90;;;;;;5014391;28;20432;-69
2022/01/20 12:11:34;;;;;;;13.68;2.67;;;3.60;99.90;;;;;;5014819;28;20084;-68
2022/01/20 12:14:00;;;;;;;14.73;2.80;;;3.60;99.90;;;;;;5014361;28;20112;-70
2022/01/20 12:16:26;;;;;;;20.20;3.33;;;3.60;99.90;;;;;;4997103;28;20452;-69
2022/01/20 12:18:53;;;;;;;15.77;2.78;;;3.70;99.90;;;;;;5014451;28;20089;-68
2022/01/20 12:21:20;;;;;;;13.55;2.90;;;3.80;99.90;;;;;;5014137;28;20398;-67
2022/01/20 12:23:46;;;;;;;16.70;2.80;;;3.90;99.90;;;;;;5014407;28;20048;-70
2022/01/20 12:26:12;;;;;;;13.75;3.05;;;3.80;99.90;;;;;;5014294;28;20185;-70
2022/01/20 12:28:39;;;;;;;16.98;3.08;;;3.80;99.90;;;;;;5014276;28;20421;-68
2022/01/20 12:31:06;;;;;;;21.27;3.67;;;3.80;99.90;;;;;;4999434;28;20473;-71
2022/01/20 12:33:35;;;;;;;15.45;3.50;;;3.80;99.90;;;;;;5000604;28;20096;-71
2022/01/20 12:36:03;;;;;;;18.08;3.80;;;3.80;99.90;;;;;;5000198;28;20470;-68
2022/01/20 12:38:35;;;;;;;13.95;3.08;;;3.90;99.90;;;;;;5000850;28;20049;-71
2022/01/20 12:41:13;;;;;;;19.38;3.08;;;4.10;99.90;;;;;;5000484;28;20049;-68
2022/01/20 12:44:03;;;;;;;21.08;3.40;;;4.10;99.90;;;;;;5017480;28;20104;-71
2022/01/20 12:46:33;;;;;;;12.70;2.58;;;4.20;99.90;;;;;;4995546;28;20143;-68
2022/01/20 12:49:12;;;;;;;16.35;3.15;;;4.20;99.90;;;;;;5000115;28;20125;-70
2022/01/20 12:51:43;;;;;;;22.30;3.15;;;4.20;99.90;;;;;;5017393;28;20060;-71
2022/01/20 12:54:36;;;;;;;14.75;2.67;;;4.10;99.90;;;;;;5000250;28;20050;-69
2022/01/20 12:57:05;;;;;;;14.80;3.13;;;4.10;99.90;;;;;;5016940;28;20065;-71
2022/01/20 12:59:34;;;;;;;22.33;3.03;;;4.20;99.90;;;;;;5017321;28;20046;-70
2022/01/20 13:02:03;;;;;;;14.77;2.92;;;4.20;99.90;;;;;;5017680;28;20423;-70
2022/01/20 13:04:31;;;;;;;15.88;3.22;;;4.30;99.90;;;;;;5000192;28;20053;-68
2022/01/20 13:07:02;;;;;;;21.73;4.20;;;4.40;99.90;;;;;;4983811;28;20117;-69
2022/01/20 13:09:46;;;;;;;20.60;3.45;;;4.50;99.90;;;;;;5016889;28;20056;-70
2022/01/20 13:12:13;;;;;;;14.95;2.85;;;4.60;99.90;;;;;;5000213;28;20081;-68
2022/01/20 13:14:44;;;;;;;20.80;3.40;;;4.60;99.90;;;;;;4999567;28;20072;-68
2022/01/20 13:17:13;;;;;;;14.73;2.75;;;4.60;99.90;;;;;;4999372;28;20046;-70
2022/01/20 13:19:43;;;;;;;20.23;3.80;;;4.90;99.90;;;;;;4999362;28;20050;-68
2022/01/20 13:22:18;;;;;;;19.45;3.08;;;4.90;99.90;;;;;;4999682;28;20049;-68
2022/01/20 13:24:44;;;;;;;11.45;2.95;;;4.70;99.90;;;;;;4999973;28;20104;-69
2022/01/20 13:27:12;;;;;;;12.52;1.92;;;4.50;99.90;;;;;;4999174;28;20046;-70
2022/01/20 13:29:49;;;;;;;14.07;2.05;;;4.30;99.90;;;;;;5017002;28;20402;-68
2022/01/20 13:32:15;;;;;;;9.65;1.77;;;4.10;99.90;;;;;;4998722;28;20065;-69
2022/01/20 13:34:52;;;;;;;2.90;1.35;;;4.00;99.90;;;;;;4996979;28;20061;-69
2022/01/20 13:37:18;;;;;;;7.63;1.70;;;3.80;99.90;;;;;;4980089;28;20356;-68
2022/01/20 13:39:44;;;;;;;9.38;1.50;;;3.80;99.90;;;;;;4997194;28;20112;-71
2022/01/20 13:45:15;;;;;;;6.15;1.80;;;3.80;99.90;;;;;;4996675;28;20061;-68
2022/01/20 13:47:56;;;;;;;9.52;2.03;;;3.80;99.90;;;;;;4996780;28;20046;-69
2022/01/20 13:50:25;;;;;;;7.50;1.83;;;3.90;99.90;;;;;;4979681;28;20062;-69
2022/01/20 13:52:51;;;;;;;15.77;2.17;;;4.00;99.90;;;;;;4979657;28;20097;-69
2022/01/20 13:55:24;;;;;;;15.27;2.60;;;3.90;99.90;;;;;;4979244;28;20050;-69
2022/01/20 13:57:50;;;;;;;10.82;1.80;;;3.80;99.90;;;;;;4979762;28;20061;-68